M. Luther — WDC7372 — position and weather

sailwx.info

Track history (hours):
 
Tides and Currents Weather Stations Pressure Air Temp Water Temp Dewpoint Dewpoint Depression Visibility Wind Speed Wind Dir Waves Ship Positions

M. Luther

Owner: Salmon Bay Barge Line, Inc., Seattle, WA. More information available from US FCC via Universal Licensing System and Coast Guard Vessel Documentation Center.

Last reported at 2015-Apr-26 23:14 UTC. Time now 2015-Apr-28 05:24 UTC.
Position N 47°33' W 122°21'.

Length 28 m; draft 4.1 m.

Type: Tug. MMSI: 367070410.

Date/timePositionNaut miles runAvg speedWind from/ knotsBaromVisibWave heightAir tempDewpointWater temp
2015-Apr-26 23:14N 47°33' W 122°21'0 0.8
2015-Apr-26 23:11N 47°33' W 122°21'3 4.3
2015-Apr-26 22:33N 47°36' W 122°22'0 1.1
2015-Apr-26 22:31N 47°36' W 122°22'2 2.5
2015-Apr-26 21:33N 47°37' W 122°25'0 3.0
2015-Apr-26 21:31N 47°37' W 122°25'5 4.9
2015-Apr-26 20:33N 47°42' W 122°28'0 6.5
2015-Apr-26 20:30N 47°42' W 122°28'6 6.5
2015-Apr-26 19:33N 47°48' W 122°28'0 6.8
2015-Apr-26 19:29N 47°49' W 122°28'6 6.7
2015-Apr-26 18:33N 47°55' W 122°30'7 6.9
2015-Apr-26 17:33N 47°60' W 122°37'8 6.9
2015-Apr-26 16:26N 48°07' W 122°41'7 7.6
2015-Apr-26 15:29N 48°12' W 122°48'8 7.6
2015-Apr-26 14:25N 48°20' W 122°47'7 7.8
2015-Apr-26 13:33N 48°27' W 122°45'9 8.9
2015-Apr-26 12:33N 48°36' W 122°46'8 7.6
2015-Apr-26 11:33N 48°43' W 122°46'7 7.3
2015-Apr-26 10:33N 48°48' W 122°55'7 6.8
2015-Apr-26 09:33N 48°52' W 123°04'8 7.8
2015-Apr-26 08:33N 48°57' W 123°12'7 7.3
2015-Apr-26 07:33N 49°02' W 123°20'5 5.0
2015-Apr-26 06:33N 49°07' W 123°17'4 4.2
2015-Apr-26 05:33N 49°07' W 123°11'5 5.3
2015-Apr-26 04:33N 49°08' W 123°03'2 1.9
2015-Apr-26 03:31N 49°09' W 123°00'0 0.0
2015-Apr-26 02:30N 49°09' W 123°00'0 0.0
2015-Apr-26 01:33N 49°09' W 123°00'0 0.0
2015-Apr-26 00:33N 49°09' W 123°00'0 0.0
2015-Apr-25 23:33N 49°09' W 123°00'0 0.0
2015-Apr-25 22:33N 49°09' W 123°00'0 0.0
2015-Apr-25 21:30N 49°09' W 123°00'0 0.0
2015-Apr-25 20:33N 49°09' W 123°00'0 0.0
2015-Apr-25 19:33N 49°09' W 123°00'0 0.0
2015-Apr-25 18:33N 49°09' W 123°00'0 0.0
2015-Apr-25 17:33N 49°09' W 123°00'0 0.0
2015-Apr-25 16:33N 49°09' W 123°00'0 0.0
2015-Apr-25 15:33N 49°09' W 123°00'0 0.0
2015-Apr-25 14:33N 49°09' W 123°00'0 0.0
2015-Apr-25 13:33N 49°09' W 123°00'0 0.0
2015-Apr-25 12:33N 49°09' W 123°00'0 0.0
2015-Apr-25 11:33N 49°09' W 123°00'0 0.0
2015-Apr-25 10:33N 49°09' W 123°00'0 0.0
2015-Apr-25 09:33N 49°09' W 123°00'0 0.0
2015-Apr-25 08:33N 49°09' W 123°00'0 0.0
2015-Apr-25 07:33N 49°09' W 123°00'0 0.0
2015-Apr-25 06:33N 49°09' W 123°00'0 0.0
2015-Apr-25 05:33N 49°09' W 123°00'0 0.0
2015-Apr-25 04:33N 49°09' W 123°00'0 0.0
2015-Apr-25 03:33N 49°09' W 123°00'0 0.0
2015-Apr-25 02:33N 49°09' W 123°00'0 0.0
2015-Apr-25 01:33N 49°09' W 123°00'0 0.0
2015-Apr-25 00:33N 49°09' W 123°00'0 0.0
2015-Apr-24 23:30N 49°09' W 123°00'0 0.0
2015-Apr-24 22:33N 49°09' W 123°00'0 0.0
2015-Apr-24 21:33N 49°09' W 123°00'0 0.0
2015-Apr-24 20:30N 49°09' W 123°00'0 0.0
2015-Apr-24 19:33N 49°09' W 123°00'0 0.0
2015-Apr-24 18:33N 49°09' W 123°00'0 0.0
2015-Apr-24 17:33N 49°09' W 123°00'0 0.0
2015-Apr-24 16:33N 49°09' W 123°00'0 0.0
2015-Apr-24 15:33N 49°09' W 123°00'0 0.0
2015-Apr-24 14:32N 49°09' W 123°00'0 0.0
2015-Apr-24 13:32N 49°09' W 123°00'0 0.0
2015-Apr-24 12:32N 49°09' W 123°00'0 0.0
2015-Apr-24 11:32N 49°09' W 123°00'0 0.0
2015-Apr-24 10:32N 49°09' W 123°00'0 0.0
2015-Apr-24 09:32N 49°09' W 123°00'0 0.0
2015-Apr-24 08:32N 49°09' W 123°00'0 0.0
2015-Apr-24 07:32N 49°09' W 123°00'0 0.0
2015-Apr-24 06:32N 49°09' W 123°00'0 0.0
2015-Apr-24 05:32N 49°09' W 123°00'0 0.0
2015-Apr-24 04:32N 49°09' W 123°00'0 0.0
2015-Apr-24 03:32N 49°09' W 123°00'0 0.0
2015-Apr-24 02:29N 49°09' W 123°00'0 0.0
2015-Apr-24 01:32N 49°09' W 123°00'0 0.0
2015-Apr-24 00:32N 49°09' W 123°00'0 0.0
2015-Apr-23 23:32N 49°09' W 123°00'0 0.0
2015-Apr-23 22:32N 49°09' W 123°00'0 0.0
2015-Apr-23 21:32N 49°09' W 123°00'0 0.0
2015-Apr-23 20:32N 49°09' W 123°00'0 0.0
2015-Apr-23 19:32N 49°09' W 123°00'0 0.0
2015-Apr-23 18:32N 49°09' W 123°00'0 0.0
2015-Apr-23 17:32N 49°09' W 123°00'0 0.0
2015-Apr-23 16:32N 49°09' W 123°00'0 0.0
2015-Apr-23 15:32N 49°09' W 123°00'0 0.0
2015-Apr-23 14:32N 49°09' W 123°00'0 0.0
2015-Apr-23 13:32N 49°09' W 123°00'0 0.0
2015-Apr-23 12:33N 49°09' W 123°00'2 2.0
2015-Apr-23 11:33N 49°08' W 123°03'5 5.0
2015-Apr-23 10:33N 49°07' W 123°10'5 4.8
2015-Apr-23 09:33N 49°06' W 123°18'4 3.9
2015-Apr-23 08:33N 49°03' W 123°17'6 6.1
2015-Apr-23 07:33N 48°59' W 123°10'6 6.1
2015-Apr-23 06:33N 48°54' W 123°03'8 8.2
2015-Apr-23 05:33N 48°49' W 122°54'8 8.4
2015-Apr-23 04:33N 48°43' W 122°44'9 9.4
2015-Apr-23 03:33N 48°34' W 122°45'1010.4
2015-Apr-23 02:33N 48°24' W 122°44'14 5.5
2015-Apr-23 00:04N 48°10' W 122°44'3 4.1
2015-Apr-22 23:25N 48°08' W 122°41'6 6.3
2015-Apr-22 22:32N 48°03' W 122°38'7 7.4
2015-Apr-22 21:33N 47°57' W 122°32'8 7.9
2015-Apr-22 20:33N 47°50' W 122°27'8 8.1
2015-Apr-22 19:33N 47°42' W 122°27'7 6.7
2015-Apr-22 18:33N 47°36' W 122°22'3 2.0
2015-Apr-22 17:18N 47°33' W 122°21'0 0.0
2015-Apr-22 13:09N 47°33' W 122°21'0 0.1
2015-Apr-22 12:33N 47°33' W 122°21'0 0.0
2015-Apr-22 11:33N 47°33' W 122°21'0 0.0
2015-Apr-22 09:13N 47°33' W 122°21'0 0.0
2015-Apr-22 08:30N 47°33' W 122°21'0 0.0
2015-Apr-22 07:19N 47°33' W 122°21'0 0.0
2015-Apr-22 06:32N 47°33' W 122°21'0 0.0
2015-Apr-22 05:31N 47°33' W 122°21'0 0.0
2015-Apr-22 04:33N 47°33' W 122°21'0 0.0
2015-Apr-22 03:29N 47°33' W 122°21'  
Track history (hours):
 
Tides and Currents Weather Stations Pressure Air Temp Water Temp Dewpoint Dewpoint Depression Visibility Wind Speed Wind Dir Waves Ship Positions

M. Luther

Owner: Salmon Bay Barge Line, Inc., Seattle, WA. More information available from US FCC via Universal Licensing System and Coast Guard Vessel Documentation Center.

Last reported at 2015-Apr-26 23:14 UTC. Time now 2015-Apr-28 05:24 UTC.
Position N 47°33' W 122°21'.

Length 28 m; draft 4.1 m.

Type: Tug. MMSI: 367070410.

Date/timePositionNaut miles runAvg speedWind from/ knotsBaromVisibWave heightAir tempDewpointWater temp
2015-Apr-26 23:14N 47°33' W 122°21'0 0.8
2015-Apr-26 23:11N 47°33' W 122°21'3 4.3
2015-Apr-26 22:33N 47°36' W 122°22'0 1.1
2015-Apr-26 22:31N 47°36' W 122°22'2 2.5
2015-Apr-26 21:33N 47°37' W 122°25'0 3.0
2015-Apr-26 21:31N 47°37' W 122°25'5 4.9
2015-Apr-26 20:33N 47°42' W 122°28'0 6.5
2015-Apr-26 20:30N 47°42' W 122°28'6 6.5
2015-Apr-26 19:33N 47°48' W 122°28'0 6.8
2015-Apr-26 19:29N 47°49' W 122°28'6 6.7
2015-Apr-26 18:33N 47°55' W 122°30'7 6.9
2015-Apr-26 17:33N 47°60' W 122°37'8 6.9
2015-Apr-26 16:26N 48°07' W 122°41'7 7.6
2015-Apr-26 15:29N 48°12' W 122°48'8 7.6
2015-Apr-26 14:25N 48°20' W 122°47'7 7.8
2015-Apr-26 13:33N 48°27' W 122°45'9 8.9
2015-Apr-26 12:33N 48°36' W 122°46'8 7.6
2015-Apr-26 11:33N 48°43' W 122°46'7 7.3
2015-Apr-26 10:33N 48°48' W 122°55'7 6.8
2015-Apr-26 09:33N 48°52' W 123°04'8 7.8
2015-Apr-26 08:33N 48°57' W 123°12'7 7.3
2015-Apr-26 07:33N 49°02' W 123°20'5 5.0
2015-Apr-26 06:33N 49°07' W 123°17'4 4.2
2015-Apr-26 05:33N 49°07' W 123°11'5 5.3
2015-Apr-26 04:33N 49°08' W 123°03'2 1.9
2015-Apr-26 03:31N 49°09' W 123°00'0 0.0
2015-Apr-26 02:30N 49°09' W 123°00'0 0.0
2015-Apr-26 01:33N 49°09' W 123°00'0 0.0
2015-Apr-26 00:33N 49°09' W 123°00'0 0.0
2015-Apr-25 23:33N 49°09' W 123°00'0 0.0
2015-Apr-25 22:33N 49°09' W 123°00'0 0.0
2015-Apr-25 21:30N 49°09' W 123°00'0 0.0
2015-Apr-25 20:33N 49°09' W 123°00'0 0.0
2015-Apr-25 19:33N 49°09' W 123°00'0 0.0
2015-Apr-25 18:33N 49°09' W 123°00'0 0.0
2015-Apr-25 17:33N 49°09' W 123°00'0 0.0
2015-Apr-25 16:33N 49°09' W 123°00'0 0.0
2015-Apr-25 15:33N 49°09' W 123°00'0 0.0
2015-Apr-25 14:33N 49°09' W 123°00'0 0.0
2015-Apr-25 13:33N 49°09' W 123°00'0 0.0
2015-Apr-25 12:33N 49°09' W 123°00'0 0.0
2015-Apr-25 11:33N 49°09' W 123°00'0 0.0
2015-Apr-25 10:33N 49°09' W 123°00'0 0.0
2015-Apr-25 09:33N 49°09' W 123°00'0 0.0
2015-Apr-25 08:33N 49°09' W 123°00'0 0.0
2015-Apr-25 07:33N 49°09' W 123°00'0 0.0
2015-Apr-25 06:33N 49°09' W 123°00'0 0.0
2015-Apr-25 05:33N 49°09' W 123°00'0 0.0
2015-Apr-25 04:33N 49°09' W 123°00'0 0.0
2015-Apr-25 03:33N 49°09' W 123°00'0 0.0
2015-Apr-25 02:33N 49°09' W 123°00'0 0.0
2015-Apr-25 01:33N 49°09' W 123°00'0 0.0
2015-Apr-25 00:33N 49°09' W 123°00'0 0.0
2015-Apr-24 23:30N 49°09' W 123°00'0 0.0
2015-Apr-24 22:33N 49°09' W 123°00'0 0.0
2015-Apr-24 21:33N 49°09' W 123°00'0 0.0
2015-Apr-24 20:30N 49°09' W 123°00'0 0.0
2015-Apr-24 19:33N 49°09' W 123°00'0 0.0
2015-Apr-24 18:33N 49°09' W 123°00'0 0.0
2015-Apr-24 17:33N 49°09' W 123°00'0 0.0
2015-Apr-24 16:33N 49°09' W 123°00'0 0.0
2015-Apr-24 15:33N 49°09' W 123°00'0 0.0
2015-Apr-24 14:32N 49°09' W 123°00'0 0.0
2015-Apr-24 13:32N 49°09' W 123°00'0 0.0
2015-Apr-24 12:32N 49°09' W 123°00'0 0.0
2015-Apr-24 11:32N 49°09' W 123°00'0 0.0
2015-Apr-24 10:32N 49°09' W 123°00'0 0.0
2015-Apr-24 09:32N 49°09' W 123°00'0 0.0
2015-Apr-24 08:32N 49°09' W 123°00'0 0.0
2015-Apr-24 07:32N 49°09' W 123°00'0 0.0
2015-Apr-24 06:32N 49°09' W 123°00'0 0.0
2015-Apr-24 05:32N 49°09' W 123°00'0 0.0
2015-Apr-24 04:32N 49°09' W 123°00'0 0.0
2015-Apr-24 03:32N 49°09' W 123°00'0 0.0
2015-Apr-24 02:29N 49°09' W 123°00'0 0.0
2015-Apr-24 01:32N 49°09' W 123°00'0 0.0
2015-Apr-24 00:32N 49°09' W 123°00'0 0.0
2015-Apr-23 23:32N 49°09' W 123°00'0 0.0
2015-Apr-23 22:32N 49°09' W 123°00'0 0.0
2015-Apr-23 21:32N 49°09' W 123°00'0 0.0
2015-Apr-23 20:32N 49°09' W 123°00'0 0.0
2015-Apr-23 19:32N 49°09' W 123°00'0 0.0
2015-Apr-23 18:32N 49°09' W 123°00'0 0.0
2015-Apr-23 17:32N 49°09' W 123°00'0 0.0
2015-Apr-23 16:32N 49°09' W 123°00'0 0.0
2015-Apr-23 15:32N 49°09' W 123°00'0 0.0
2015-Apr-23 14:32N 49°09' W 123°00'0 0.0
2015-Apr-23 13:32N 49°09' W 123°00'0 0.0
2015-Apr-23 12:33N 49°09' W 123°00'2 2.0
2015-Apr-23 11:33N 49°08' W 123°03'5 5.0
2015-Apr-23 10:33N 49°07' W 123°10'5 4.8
2015-Apr-23 09:33N 49°06' W 123°18'4 3.9
2015-Apr-23 08:33N 49°03' W 123°17'6 6.1
2015-Apr-23 07:33N 48°59' W 123°10'6 6.1
2015-Apr-23 06:33N 48°54' W 123°03'8 8.2
2015-Apr-23 05:33N 48°49' W 122°54'8 8.4
2015-Apr-23 04:33N 48°43' W 122°44'9 9.4
2015-Apr-23 03:33N 48°34' W 122°45'1010.4
2015-Apr-23 02:33N 48°24' W 122°44'14 5.5
2015-Apr-23 00:04N 48°10' W 122°44'3 4.1
2015-Apr-22 23:25N 48°08' W 122°41'6 6.3
2015-Apr-22 22:32N 48°03' W 122°38'7 7.4
2015-Apr-22 21:33N 47°57' W 122°32'8 7.9
2015-Apr-22 20:33N 47°50' W 122°27'8 8.1
2015-Apr-22 19:33N 47°42' W 122°27'7 6.7
2015-Apr-22 18:33N 47°36' W 122°22'3 2.0
2015-Apr-22 17:18N 47°33' W 122°21'0 0.0
2015-Apr-22 13:09N 47°33' W 122°21'0 0.1
2015-Apr-22 12:33N 47°33' W 122°21'0 0.0
2015-Apr-22 11:33N 47°33' W 122°21'0 0.0
2015-Apr-22 09:13N 47°33' W 122°21'0 0.0
2015-Apr-22 08:30N 47°33' W 122°21'0 0.0
2015-Apr-22 07:19N 47°33' W 122°21'0 0.0
2015-Apr-22 06:32N 47°33' W 122°21'0 0.0
2015-Apr-22 05:31N 47°33' W 122°21'0 0.0
2015-Apr-22 04:33N 47°33' W 122°21'0 0.0
2015-Apr-22 03:29N 47°33' W 122°21'  

Dump ship's entire track history